createdAt,value
2023-05-12T02:21:16.136Z,2.67
2023-05-12T02:23:44.152Z,1.60
2023-05-12T02:26:13.176Z,2.45
2023-05-12T02:28:41.178Z,2.20
2023-05-12T02:31:09.113Z,3.00
2023-05-12T02:33:37.023Z,2.42
2023-05-12T02:36:05.222Z,2.85
2023-05-12T02:38:32.877Z,3.70
2023-05-12T02:41:00.657Z,1.67
2023-05-12T02:43:28.750Z,2.17
2023-05-12T02:45:56.440Z,1.75
2023-05-12T02:48:24.294Z,1.83
2023-05-12T02:50:53.300Z,1.40
2023-05-12T02:53:21.637Z,2.25
2023-05-12T02:55:49.399Z,3.28
2023-05-12T02:58:17.415Z,2.83
2023-05-12T03:00:45.405Z,1.65
2023-05-12T03:03:14.009Z,1.95
2023-05-12T03:05:41.931Z,2.38
2023-05-12T03:08:11.062Z,2.47
2023-05-12T03:10:39.698Z,3.03
2023-05-12T03:13:07.357Z,1.80
2023-05-12T03:15:36.895Z,3.85
2023-05-12T03:18:04.813Z,2.05
2023-05-12T03:20:32.512Z,1.88
2023-05-12T03:23:00.441Z,3.88
2023-05-12T03:25:28.953Z,2.03
2023-05-12T03:27:56.886Z,1.70
2023-05-12T03:30:24.705Z,2.28
2023-05-12T03:32:52.384Z,2.47
2023-05-12T03:35:20.802Z,2.30
2023-05-12T03:37:50.106Z,2.28
2023-05-12T03:40:19.117Z,3.30
2023-05-12T03:42:47.831Z,3.67
2023-05-12T03:45:15.669Z,2.50
2023-05-12T03:47:43.578Z,3.80
2023-05-12T03:50:11.919Z,2.67
2023-05-12T03:52:41.573Z,4.75
2023-05-12T03:55:10.695Z,3.42
2023-05-12T03:57:38.750Z,2.47
2023-05-12T04:00:07.476Z,2.80
2023-05-12T04:02:44.452Z,4.32
2023-05-12T04:05:13.726Z,3.97
2023-05-12T04:07:42.180Z,5.25
2023-05-12T04:10:10.012Z,8.05
2023-05-12T04:12:37.701Z,5.80
2023-05-12T04:15:06.409Z,5.20
2023-05-12T04:17:34.716Z,5.70
2023-05-12T04:20:02.403Z,25.98
2023-05-12T04:22:30.596Z,42.40
2023-05-12T04:24:58.440Z,36.75
2023-05-12T04:27:26.021Z,37.92
2023-05-12T04:29:53.919Z,35.15
2023-05-12T04:32:22.469Z,32.63
2023-05-12T04:34:50.935Z,30.20
2023-05-12T04:37:18.785Z,29.80
2023-05-12T04:39:46.499Z,16.30
2023-05-12T04:42:14.351Z,28.45
2023-05-12T04:44:42.411Z,22.98
2023-05-12T04:47:10.119Z,23.30
2023-05-12T04:49:37.943Z,21.80
2023-05-12T04:52:05.962Z,20.35
2023-05-12T04:54:33.968Z,17.23
2023-05-12T04:57:02.069Z,22.63
2023-05-12T04:59:30.750Z,17.35
2023-05-12T05:01:58.605Z,17.70
2023-05-12T05:04:26.390Z,14.52
2023-05-12T05:06:55.813Z,17.48
2023-05-12T05:09:24.343Z,15.77
2023-05-12T05:11:52.415Z,15.13
2023-05-12T05:14:20.159Z,14.40
2023-05-12T05:16:48.658Z,13.27
2023-05-12T05:19:22.581Z,15.00
2023-05-12T05:21:58.167Z,14.70
2023-05-12T05:24:26.030Z,11.65
2023-05-12T05:26:54.855Z,12.70
2023-05-12T05:29:22.642Z,12.98
2023-05-12T05:31:50.923Z,11.43
2023-05-12T05:34:18.791Z,12.82
2023-05-12T05:36:47.733Z,11.07
2023-05-12T05:39:16.163Z,9.98
2023-05-12T05:41:43.889Z,9.07
2023-05-12T05:44:11.550Z,10.25
2023-05-12T05:46:39.522Z,10.88
2023-05-12T05:49:07.438Z,8.63
2023-05-12T05:51:35.186Z,8.30
2023-05-12T05:54:02.979Z,9.57
2023-05-12T05:56:31.929Z,10.07
2023-05-12T05:59:03.365Z,9.52
2023-05-12T06:01:32.373Z,8.30
2023-05-12T06:04:00.807Z,9.25
2023-05-12T06:06:29.471Z,9.52
2023-05-12T06:08:57.200Z,7.55
2023-05-12T06:11:24.909Z,7.15
2023-05-12T06:13:56.444Z,5.63
2023-05-12T06:16:24.434Z,5.70
2023-05-12T06:18:52.175Z,7.18
2023-05-12T06:21:20.031Z,5.70
2023-05-12T06:23:48.031Z,6.63
2023-05-12T06:26:15.854Z,7.32
2023-05-12T06:28:43.547Z,7.95
2023-05-12T06:31:11.260Z,8.13
2023-05-12T06:33:39.002Z,8.68
2023-05-12T06:36:07.966Z,6.78
2023-05-12T06:38:35.613Z,6.15
2023-05-12T06:41:03.373Z,7.00
2023-05-12T06:43:31.004Z,7.72
2023-05-12T06:45:58.883Z,7.45
2023-05-12T06:48:26.554Z,9.73
2023-05-12T06:50:58.157Z,6.43
2023-05-12T06:53:30.328Z,6.50
2023-05-12T06:55:58.587Z,8.73
2023-05-12T06:58:26.276Z,7.40
2023-05-12T07:00:53.991Z,11.10
2023-05-12T07:03:21.714Z,13.77
2023-05-12T07:05:49.616Z,9.48
2023-05-12T07:08:17.496Z,9.82
2023-05-12T07:10:45.174Z,14.00
2023-05-12T07:13:13.090Z,5.75
2023-05-12T07:15:40.971Z,8.55
2023-05-12T07:18:08.678Z,7.28
2023-05-12T07:20:36.572Z,7.22
2023-05-12T07:23:04.713Z,7.70
2023-05-12T07:25:32.520Z,8.05
2023-05-12T07:28:00.196Z,13.77
2023-05-12T07:30:27.991Z,9.13
2023-05-12T07:32:55.714Z,10.40
2023-05-12T07:35:23.884Z,9.98
2023-05-12T07:37:51.491Z,8.50
2023-05-12T07:40:19.239Z,7.07
2023-05-12T07:42:46.848Z,5.40
2023-05-12T07:45:14.714Z,8.27
2023-05-12T07:47:43.411Z,8.32
2023-05-12T07:50:11.356Z,8.43
2023-05-12T07:52:49.954Z,8.77
2023-05-12T07:55:19.526Z,11.63
2023-05-12T07:57:47.798Z,5.75
2023-05-12T08:00:16.037Z,8.05
2023-05-12T08:02:43.888Z,9.20
2023-05-12T08:05:11.912Z,7.78
2023-05-12T08:07:41.241Z,6.00
2023-05-12T08:10:10.265Z,8.23
2023-05-12T08:12:38.142Z,7.90
2023-05-12T08:15:06.638Z,7.30
2023-05-12T08:17:34.485Z,5.80
2023-05-12T08:20:04.627Z,10.55
2023-05-12T08:22:33.659Z,9.25
2023-05-12T08:25:01.397Z,6.97
2023-05-12T08:27:30.271Z,8.38
2023-05-12T08:29:57.996Z,9.00
2023-05-12T08:32:25.816Z,4.93
2023-05-12T08:34:53.683Z,6.55
2023-05-12T08:37:21.476Z,8.80
2023-05-12T08:39:49.268Z,10.85
2023-05-12T08:42:42.301Z,10.30
2023-05-12T08:45:11.650Z,7.78
2023-05-12T08:47:39.378Z,10.32
2023-05-12T08:50:08.297Z,7.03
2023-05-12T08:52:36.531Z,7.88
2023-05-12T08:55:05.454Z,5.88
2023-05-12T08:57:33.992Z,6.47
2023-05-12T09:00:02.735Z,4.38
2023-05-12T09:02:48.292Z,5.28
2023-05-12T09:05:20.631Z,6.20
2023-05-12T09:07:50.135Z,7.10
2023-05-12T09:10:33.736Z,7.95
2023-05-12T09:13:05.312Z,7.72
2023-05-12T09:15:41.200Z,5.25
2023-05-12T09:18:09.212Z,5.22
2023-05-12T09:20:37.017Z,5.30
2023-05-12T09:23:21.271Z,6.35
2023-05-12T09:26:00.664Z,7.68
2023-05-12T09:28:36.713Z,6.35
2023-05-12T09:31:21.641Z,7.40
2023-05-12T09:33:50.405Z,8.98
2023-05-12T09:36:23.261Z,8.73
2023-05-12T09:39:04.767Z,7.55
2023-05-12T09:41:39.018Z,7.43
2023-05-12T09:44:08.714Z,6.25
2023-05-12T09:46:37.348Z,7.00
2023-05-12T09:49:05.033Z,7.35
2023-05-12T09:51:32.985Z,7.20
2023-05-12T09:54:02.605Z,6.85
2023-05-12T09:56:35.409Z,6.38
2023-05-12T09:59:04.510Z,4.95
2023-05-12T11:17:28.890Z,3.33
2023-05-12T11:19:56.976Z,4.40
2023-05-12T11:22:25.217Z,3.92
2023-05-12T11:24:53.356Z,3.42
2023-05-12T11:27:23.322Z,6.57
2023-05-12T11:30:02.924Z,4.68
2023-05-12T11:32:33.095Z,7.03
2023-05-12T11:35:18.641Z,4.22
2023-05-12T11:37:46.780Z,5.18
2023-05-12T11:40:22.654Z,5.65
2023-05-12T11:42:55.960Z,5.22
2023-05-12T11:45:30.770Z,3.90
2023-05-12T11:48:12.683Z,7.00
2023-05-12T11:50:47.791Z,3.67
2023-05-12T11:53:19.534Z,5.82
2023-05-12T11:55:53.146Z,3.95
2023-05-12T11:58:30.912Z,4.07
2023-05-12T12:01:10.304Z,3.83
2023-05-12T12:03:47.771Z,4.30
2023-05-12T12:06:17.460Z,5.57
2023-05-12T12:08:55.570Z,4.90
2023-05-12T12:11:24.697Z,4.55
2023-05-12T12:13:56.864Z,4.43
2023-05-12T12:18:53.490Z,4.85
2023-05-12T12:21:22.492Z,4.65
2023-05-12T12:23:51.628Z,4.47
2023-05-12T12:26:21.719Z,4.53
2023-05-12T12:28:50.194Z,5.35
2023-05-12T12:31:17.977Z,8.25
2023-05-12T12:33:45.750Z,3.80
2023-05-12T12:36:13.584Z,5.18
2023-05-12T12:38:41.424Z,3.42
2023-05-12T12:41:09.643Z,4.95
2023-05-12T12:43:37.210Z,4.50
2023-05-12T12:46:05.124Z,4.32
2023-05-12T12:48:33.637Z,4.07
2023-05-12T12:51:01.457Z,7.50
2023-05-12T12:53:29.161Z,5.78
2023-05-12T12:55:56.932Z,4.22
2023-05-12T12:58:24.596Z,3.33
2023-05-12T13:00:52.516Z,4.07
2023-05-12T13:03:20.565Z,4.68
2023-05-12T13:05:48.388Z,5.57
2023-05-12T13:08:17.758Z,5.35
2023-05-12T13:10:45.676Z,4.95
2023-05-12T13:13:13.479Z,5.88
2023-05-12T13:15:42.333Z,4.00
2023-05-12T13:18:10.149Z,5.30
2023-05-12T13:20:37.866Z,4.05
2023-05-12T13:23:05.506Z,5.43
2023-05-12T13:25:33.191Z,5.10
2023-05-12T13:28:01.010Z,4.28
2023-05-12T13:30:28.600Z,4.30
2023-05-12T13:32:56.385Z,4.13
2023-05-12T13:35:24.156Z,3.95
2023-05-12T13:37:52.060Z,4.63
2023-05-12T13:40:19.712Z,4.88
2023-05-12T13:42:47.369Z,5.43
2023-05-12T13:45:16.335Z,5.03
2023-05-12T13:47:46.280Z,5.50
2023-05-12T13:50:14.020Z,5.13
2023-05-12T13:52:41.885Z,5.70
2023-05-12T13:55:12.937Z,7.70
2023-05-12T13:57:44.475Z,4.60
2023-05-12T14:00:13.854Z,4.60
2023-05-12T14:02:48.408Z,5.90
2023-05-12T14:05:16.819Z,4.30
2023-05-12T14:07:44.524Z,5.88
2023-05-12T14:10:12.387Z,6.10
2023-05-12T14:12:42.689Z,6.25
2023-05-12T14:15:26.138Z,4.40
2023-05-12T14:17:58.859Z,4.35
2023-05-12T14:20:26.549Z,3.78
2023-05-12T14:22:54.467Z,5.43
2023-05-12T14:25:22.514Z,5.20
2023-05-12T14:27:50.758Z,6.72
2023-05-12T14:30:18.569Z,4.25
2023-05-12T14:32:46.602Z,5.70
2023-05-12T14:35:14.601Z,4.97
2023-05-12T14:37:42.288Z,4.90
2023-05-12T14:40:10.737Z,6.60
2023-05-12T14:42:38.988Z,4.35
2023-05-12T14:45:07.110Z,4.82
2023-05-12T14:47:34.913Z,3.53
2023-05-12T14:50:03.010Z,5.82
2023-05-12T14:52:31.352Z,4.63
2023-05-12T14:54:59.129Z,4.13
2023-05-12T14:57:27.101Z,5.68
2023-05-12T14:59:58.798Z,5.18
2023-05-12T15:02:28.594Z,4.70
2023-05-12T15:04:56.445Z,6.28
2023-05-12T15:07:24.110Z,5.55
2023-05-12T15:09:52.208Z,5.32
2023-05-12T15:12:19.863Z,5.20
2023-05-12T15:14:47.801Z,4.75
2023-05-12T15:17:16.262Z,5.53
2023-05-12T15:19:44.273Z,5.40
2023-05-12T15:22:12.399Z,5.97
2023-05-12T15:24:40.078Z,6.72
2023-05-12T15:27:08.080Z,6.50
2023-05-12T15:29:39.721Z,5.15
2023-05-12T15:32:07.835Z,6.18
2023-05-12T15:34:35.809Z,6.57
2023-05-12T15:37:03.864Z,5.53
2023-05-12T15:39:31.797Z,4.72
2023-05-12T15:42:00.369Z,6.20
2023-05-12T15:44:28.202Z,4.85
2023-05-12T15:46:55.929Z,5.35
2023-05-12T15:49:23.668Z,6.13
2023-05-12T15:51:51.342Z,5.88
2023-05-12T15:54:19.214Z,4.70
2023-05-12T15:56:49.326Z,6.38
2023-05-12T15:59:17.568Z,4.90
2023-05-12T16:01:45.348Z,6.10
2023-05-12T16:04:13.316Z,6.18
2023-05-12T16:06:41.017Z,6.28
2023-05-12T16:09:09.571Z,5.28
2023-05-12T16:11:37.353Z,5.72
2023-05-12T16:14:05.700Z,5.78
2023-05-12T16:16:33.491Z,5.82
2023-05-12T16:19:01.373Z,5.25
2023-05-12T16:21:29.108Z,5.53
2023-05-12T16:23:57.147Z,6.05
2023-05-12T16:26:25.013Z,6.22
2023-05-12T16:28:53.071Z,5.78
2023-05-12T16:31:20.815Z,3.85
2023-05-12T16:33:48.765Z,6.75
2023-05-12T16:36:17.707Z,5.30
2023-05-12T16:38:45.617Z,4.15
2023-05-12T16:41:13.283Z,5.20
2023-05-12T16:43:40.964Z,5.00
2023-05-12T16:46:08.698Z,4.63
2023-05-12T16:48:36.538Z,5.47
2023-05-12T16:51:06.871Z,5.22
2023-05-12T16:53:35.260Z,5.63
2023-05-12T16:56:02.973Z,4.05
2023-05-12T16:58:33.899Z,5.38
2023-05-12T17:01:02.170Z,6.90
2023-05-12T17:03:30.026Z,5.32
2023-05-12T17:05:58.991Z,4.50
2023-05-12T17:08:26.984Z,5.15
2023-05-12T17:10:54.773Z,5.85
2023-05-12T17:13:22.598Z,5.00
2023-05-12T17:15:51.200Z,5.05
2023-05-12T17:18:18.953Z,5.18
2023-05-12T17:20:46.936Z,5.47
2023-05-12T17:23:14.678Z,4.63
2023-05-12T17:25:42.734Z,4.93
2023-05-12T17:28:11.055Z,5.18
2023-05-12T17:30:38.949Z,5.22
2023-05-12T17:33:08.590Z,5.10
2023-05-12T17:35:36.536Z,4.10
2023-05-12T17:38:04.370Z,6.85
2023-05-12T17:40:32.287Z,5.20
2023-05-12T17:42:59.935Z,4.47
2023-05-12T17:45:28.472Z,5.03
2023-05-12T17:47:56.803Z,4.93
2023-05-12T17:50:24.588Z,4.90
2023-05-12T17:52:53.724Z,6.90
2023-05-12T17:55:22.023Z,5.22
2023-05-12T17:57:50.291Z,5.45
2023-05-12T18:00:19.277Z,4.68
2023-05-12T18:02:47.187Z,7.47
2023-05-12T18:05:14.954Z,4.25
2023-05-12T18:07:42.992Z,3.85
2023-05-12T18:10:11.407Z,4.03
2023-05-12T18:12:39.567Z,4.80
2023-05-12T18:15:09.384Z,3.75
2023-05-12T18:17:37.452Z,4.07
2023-05-12T18:20:06.935Z,3.85
2023-05-12T18:22:34.708Z,5.05
2023-05-12T18:25:02.475Z,5.13
2023-05-12T18:27:30.154Z,4.55
2023-05-12T18:29:57.906Z,5.55
2023-05-12T18:32:26.311Z,5.35
2023-05-12T18:34:54.153Z,5.93
2023-05-12T18:37:22.448Z,6.28
2023-05-12T18:39:50.388Z,6.93
2023-05-12T18:42:18.072Z,6.07
2023-05-12T18:44:45.938Z,5.60
2023-05-12T18:47:14.580Z,5.93
2023-05-12T18:49:42.565Z,5.57
2023-05-12T18:52:10.326Z,6.13
2023-05-12T18:54:38.159Z,6.55
2023-05-12T18:57:06.231Z,6.15
2023-05-12T18:59:34.007Z,7.95
2023-05-12T19:02:01.914Z,8.15
2023-05-12T19:04:30.757Z,8.50
2023-05-12T19:06:58.530Z,13.65
2023-05-12T19:09:26.216Z,6.55
2023-05-12T19:11:54.035Z,8.00
2023-05-12T19:14:21.785Z,6.80
2023-05-12T19:16:49.686Z,5.72
2023-05-12T19:19:17.644Z,6.57
2023-05-12T19:21:45.720Z,6.78
2023-05-12T19:24:13.780Z,4.97
2023-05-12T19:26:41.542Z,8.10
2023-05-12T19:29:09.400Z,5.53
2023-05-12T19:31:37.299Z,6.13
2023-05-12T19:34:05.165Z,15.50
2023-05-12T19:36:33.110Z,5.72
